createdAt,value
2019-01-16T00:04:50.968Z,70.36
2019-01-16T00:10:11.930Z,70.22
2019-01-16T00:15:17.057Z,70.35
2019-01-16T00:20:25.396Z,70.04
2019-01-16T00:25:39.963Z,69.91
2019-01-16T00:30:54.647Z,69.91
2019-01-16T00:35:57.103Z,69.68
2019-01-16T00:40:59.545Z,69.72
2019-01-16T00:46:08.193Z,69.88
2019-01-16T00:51:16.535Z,69.88
2019-01-16T00:56:24.837Z,69.46
2019-01-16T01:01:27.298Z,69.33
2019-01-16T01:06:41.964Z,69.21
2019-01-16T01:11:47.344Z,68.91
2019-01-16T01:17:08.194Z,68.83
2019-01-16T01:22:13.429Z,68.37
2019-01-16T01:27:18.388Z,68.11
2019-01-16T01:32:29.640Z,68.13
2019-01-16T01:37:40.841Z,68.00
2019-01-16T01:42:49.112Z,67.64
2019-01-16T01:48:00.528Z,67.28
2019-01-16T01:53:02.993Z,67.32
2019-01-16T01:58:08.410Z,67.12
2019-01-16T02:03:13.585Z,67.33
2019-01-16T02:08:18.816Z,66.77
2019-01-16T02:13:36.280Z,66.75
2019-01-16T02:18:56.577Z,66.67
2019-01-16T02:24:08.156Z,66.29
2019-01-16T02:29:22.738Z,66.50
2019-01-16T02:34:37.346Z,66.46
2019-01-16T02:39:48.917Z,66.05
2019-01-16T02:45:09.224Z,66.30
2019-01-16T02:50:11.682Z,66.42
2019-01-16T02:55:26.316Z,66.43
2019-01-16T03:00:37.389Z,66.53
2019-01-16T03:05:57.783Z,66.67
2019-01-16T03:11:03.068Z,66.73
2019-01-16T03:16:23.677Z,66.47
2019-01-16T03:21:28.888Z,66.61
2019-01-16T03:26:31.353Z,66.50
2019-01-16T03:31:36.853Z,66.12
2019-01-16T03:36:57.558Z,66.02
2019-01-16T03:42:12.248Z,66.14
2019-01-16T03:47:32.528Z,66.34
2019-01-16T03:52:34.987Z,65.86
2019-01-16T03:57:39.951Z,65.54
2019-01-16T04:03:00.775Z,65.16
2019-01-16T04:08:03.220Z,65.14
2019-01-16T04:13:05.675Z,65.00
2019-01-16T04:18:08.184Z,65.03
2019-01-16T04:23:19.816Z,64.79
2019-01-16T04:28:28.253Z,64.64
2019-01-16T04:33:36.293Z,64.43
2019-01-16T04:38:38.774Z,64.36
2019-01-16T04:43:43.999Z,64.23
2019-01-16T04:48:52.514Z,64.41
2019-01-16T04:53:54.967Z,64.37
2019-01-16T04:59:06.448Z,64.50
2019-01-16T05:04:14.662Z,65.08
2019-01-16T05:09:26.304Z,65.16
2019-01-16T05:14:47.000Z,64.58
2019-01-16T05:20:01.354Z,64.93
2019-01-16T05:25:03.838Z,65.44
2019-01-16T05:30:06.300Z,65.06
2019-01-16T05:35:14.411Z,65.86
2019-01-16T05:40:19.981Z,65.71
2019-01-16T05:45:34.641Z,65.99
2019-01-16T05:50:46.116Z,66.05
2019-01-16T05:55:57.539Z,65.60
2019-01-16T06:01:18.124Z,65.75
2019-01-16T06:06:32.364Z,66.07
2019-01-16T06:11:34.840Z,66.25
2019-01-16T06:16:49.337Z,66.25
2019-01-16T06:21:51.792Z,66.36
2019-01-16T06:27:03.314Z,66.03
2019-01-16T06:32:26.891Z,65.75
2019-01-16T06:37:29.347Z,65.98
2019-01-16T06:42:50.157Z,66.18
2019-01-16T06:47:58.136Z,66.42
2019-01-16T06:53:00.615Z,65.81
2019-01-16T06:58:05.974Z,65.56
2019-01-16T07:03:26.836Z,65.42
2019-01-16T07:08:29.344Z,65.33
2019-01-16T07:13:46.966Z,65.14
2019-01-16T07:18:55.080Z,65.61
2019-01-16T07:24:00.719Z,65.47
2019-01-16T07:29:03.181Z,65.39
2019-01-16T07:34:05.643Z,65.91
2019-01-16T07:39:08.103Z,66.08
2019-01-16T07:44:16.402Z,65.71
2019-01-16T07:49:18.810Z,65.39
2019-01-16T07:54:21.271Z,65.20
2019-01-16T07:59:39.074Z,64.51
2019-01-16T08:04:50.074Z,63.99
2019-01-16T08:09:52.529Z,63.66
2019-01-16T08:15:10.195Z,63.48
2019-01-16T08:20:12.674Z,63.20
2019-01-16T08:25:33.400Z,63.38
2019-01-16T08:30:50.706Z,63.63
2019-01-16T08:35:59.156Z,63.43
2019-01-16T08:41:04.294Z,63.32
2019-01-16T08:46:06.752Z,63.64
2019-01-16T08:51:15.157Z,63.28
2019-01-16T08:56:20.499Z,62.84
2019-01-16T09:01:32.659Z,62.41
2019-01-16T09:06:34.503Z,60.86
2019-01-16T09:11:46.039Z,58.52
2019-01-16T09:16:48.509Z,56.89
2019-01-16T09:22:00.132Z,55.74
2019-01-16T09:27:08.158Z,55.93
2019-01-16T09:32:13.520Z,57.47
2019-01-16T09:37:19.083Z,58.21
2019-01-16T09:42:21.511Z,58.32
2019-01-16T09:47:23.981Z,58.31
2019-01-16T09:52:35.290Z,57.84
2019-01-16T09:57:40.492Z,57.59
2019-01-16T10:02:48.681Z,57.18
2019-01-16T10:07:54.071Z,57.50
2019-01-16T10:13:08.477Z,57.59
2019-01-16T10:18:10.935Z,57.95
2019-01-16T10:23:17.663Z,58.19
2019-01-16T10:28:29.433Z,58.49
2019-01-16T10:33:40.743Z,59.04
2019-01-16T10:38:49.204Z,58.71
2019-01-16T10:43:57.632Z,58.63
2019-01-16T10:49:03.196Z,58.71
2019-01-16T10:54:14.353Z,58.72
2019-01-16T10:59:25.429Z,57.98
2019-01-16T11:04:46.113Z,58.08
2019-01-16T11:10:00.630Z,57.96
2019-01-16T11:15:06.020Z,58.32
2019-01-16T11:20:17.498Z,58.22
2019-01-16T11:25:26.177Z,58.31
2019-01-16T11:30:31.143Z,58.06
2019-01-16T11:35:36.541Z,58.36
2019-01-16T11:40:56.934Z,58.68
2019-01-16T11:46:05.334Z,58.58
2019-01-16T11:51:23.108Z,58.78
2019-01-16T11:56:28.079Z,58.70
2019-01-16T12:01:30.543Z,58.63
2019-01-16T12:06:45.040Z,58.22
2019-01-16T12:12:05.733Z,58.20
2019-01-16T12:17:11.125Z,57.68
2019-01-16T12:22:16.340Z,57.30
2019-01-16T12:27:21.659Z,57.55
2019-01-16T12:32:36.354Z,57.27
2019-01-16T12:37:41.577Z,56.64
2019-01-16T12:42:53.049Z,56.12
2019-01-16T12:48:07.378Z,55.33
2019-01-16T12:53:09.876Z,55.26
2019-01-16T12:58:18.314Z,55.28
2019-01-16T13:03:26.313Z,55.14
2019-01-16T13:08:44.007Z,55.44
2019-01-16T13:13:46.467Z,55.56
2019-01-16T13:19:07.268Z,55.26
2019-01-16T13:24:09.737Z,55.24
2019-01-16T13:29:21.200Z,55.58
2019-01-16T13:34:29.633Z,56.01
2019-01-16T13:39:35.042Z,56.50
2019-01-16T13:44:43.682Z,56.44
2019-01-16T13:50:01.385Z,56.00
2019-01-16T13:55:21.985Z,55.80
2019-01-16T14:00:27.359Z,56.46
2019-01-16T14:05:47.832Z,56.63
2019-01-16T14:10:56.108Z,57.63
2019-01-16T14:15:58.952Z,57.35
2019-01-16T14:21:01.418Z,57.20
2019-01-16T14:26:06.683Z,57.00
2019-01-16T14:31:09.178Z,57.75
2019-01-16T14:36:23.393Z,58.17
2019-01-16T14:41:25.842Z,57.52
2019-01-16T14:46:30.825Z,57.03
2019-01-16T14:51:33.306Z,57.27
2019-01-16T14:56:53.436Z,57.14
2019-01-16T15:02:13.768Z,58.12
2019-01-16T15:07:18.926Z,58.26
2019-01-16T15:12:24.289Z,58.42
2019-01-16T15:17:41.798Z,58.62
2019-01-16T15:22:47.163Z,59.29
2019-01-16T15:27:49.638Z,59.33
2019-01-16T15:32:57.870Z,59.68
2019-01-16T15:38:00.354Z,60.26
2019-01-16T15:43:05.708Z,60.08
2019-01-16T15:48:11.159Z,61.01
2019-01-16T15:53:19.707Z,61.48
2019-01-16T15:58:40.249Z,62.42
2019-01-16T16:03:42.710Z,62.10
2019-01-16T16:08:57.325Z,62.43
2019-01-16T16:14:05.718Z,62.74
2019-01-16T16:19:10.723Z,63.03
2019-01-16T16:24:13.221Z,63.65
2019-01-16T16:29:21.637Z,64.22
2019-01-16T16:34:24.111Z,64.38
2019-01-16T16:39:29.084Z,64.64
2019-01-16T16:44:49.462Z,64.75
2019-01-16T16:49:51.944Z,64.66
2019-01-16T16:55:06.327Z,64.47
2019-01-16T17:00:20.592Z,64.66
2019-01-16T17:05:23.044Z,64.86
2019-01-16T17:10:37.131Z,65.04
2019-01-16T17:15:45.473Z,65.38
2019-01-16T17:20:50.952Z,65.54
2019-01-16T17:26:11.648Z,65.93
2019-01-16T17:31:14.110Z,66.30
2019-01-16T17:36:16.566Z,66.15
2019-01-16T17:41:21.704Z,66.50
2019-01-16T17:46:42.480Z,66.37
2019-01-16T17:51:47.703Z,66.86
2019-01-16T17:57:08.409Z,67.06
2019-01-16T18:02:25.783Z,67.51
2019-01-16T18:07:28.248Z,67.66
2019-01-16T18:12:30.741Z,67.70
2019-01-16T18:17:51.781Z,68.05
2019-01-16T18:22:57.199Z,68.31
2019-01-16T18:28:02.812Z,68.25
2019-01-16T18:33:11.045Z,68.09
2019-01-16T18:38:33.002Z,68.05
2019-01-16T18:43:34.200Z,67.82
2019-01-16T18:48:42.461Z,67.54
2019-01-16T18:53:44.933Z,68.16
2019-01-16T18:58:56.347Z,68.31
2019-01-16T19:04:01.356Z,68.60
2019-01-16T19:09:09.849Z,68.43
2019-01-16T19:14:24.531Z,68.76
2019-01-16T19:19:36.343Z,69.00
2019-01-16T19:24:38.807Z,69.36
2019-01-16T19:29:41.298Z,69.35
2019-01-16T19:34:43.772Z,69.59
2019-01-16T19:39:55.031Z,69.68
2019-01-16T19:45:00.513Z,69.97
2019-01-16T19:50:08.951Z,69.84
2019-01-16T19:55:17.464Z,70.14
2019-01-16T20:00:20.007Z,70.43
2019-01-16T20:05:41.814Z,70.15
2019-01-16T20:10:44.290Z,70.43
2019-01-16T20:15:49.859Z,70.82
2019-01-16T20:20:52.339Z,70.98
2019-01-16T20:26:13.123Z,71.11
2019-01-16T20:31:15.584Z,70.98
2019-01-16T20:36:20.965Z,70.86
2019-01-16T20:41:35.502Z,71.09
2019-01-16T20:46:38.219Z,71.16
2019-01-16T20:51:52.886Z,71.35
2019-01-16T20:57:04.412Z,71.36
2019-01-16T21:02:21.790Z,71.56
2019-01-16T21:07:24.269Z,71.44
2019-01-16T21:12:32.546Z,71.51
2019-01-16T21:17:37.535Z,71.86
2019-01-16T21:22:45.702Z,71.75
2019-01-16T21:27:51.026Z,71.80
2019-01-16T21:32:59.549Z,71.41
2019-01-16T21:38:17.397Z,71.62
2019-01-16T21:43:37.906Z,71.80
2019-01-16T21:48:46.470Z,71.70
2019-01-16T21:54:07.219Z,71.83
2019-01-16T21:59:09.698Z,72.20
2019-01-16T22:04:12.157Z,72.25
2019-01-16T22:09:17.492Z,72.31
2019-01-16T22:14:25.477Z,72.41
2019-01-16T22:19:27.961Z,72.77
2019-01-16T22:24:39.410Z,72.26
2019-01-16T22:29:57.003Z,72.49
2019-01-16T22:35:05.128Z,72.23
2019-01-16T22:40:10.544Z,72.66
2019-01-16T22:45:25.338Z,72.41
2019-01-16T22:50:30.499Z,73.13
2019-01-16T22:55:48.185Z,72.90
2019-01-16T23:00:53.154Z,73.14
2019-01-16T23:06:13.511Z,72.87
2019-01-16T23:11:31.292Z,73.32
2019-01-16T23:16:33.741Z,73.66
2019-01-16T23:21:36.220Z,73.24
2019-01-16T23:26:50.796Z,73.11
2019-01-16T23:32:02.398Z,73.74
2019-01-16T23:37:08.008Z,73.49
2019-01-16T23:42:10.454Z,73.40
2019-01-16T23:47:15.747Z,73.33
2019-01-16T23:52:21.092Z,73.31
2019-01-16T23:57:26.669Z,73.05
